This is the latest recevied weather packets stored in our database for station/object EA4BCR. If no packets are shown the sender has not sent any weather packets the latest 10 day(s).
| Time | Temp. | Humidity | Pressure | Rain* | Wind** | Luminosity | Snow |
|---|---|---|---|---|---|---|---|
| 1787653813 | 24.44° C | 50% | 1014.1 hPa | - | - | - | - |
| 1787653212 | 22.78° C | 54% | 1014.8 hPa | - | - | - | - |
| 1787652612 | 23.33° C | 54% | 1014.8 hPa | - | - | - | - |
| 1787652013 | 23.33° C | 55% | 1014.8 hPa | - | - | - | - |
| 1787651412 | 23.89° C | 57% | 1014.7 hPa | - | - | - | - |
| 1787650812 | 23.33° C | 57% | 1014.7 hPa | - | - | - | - |
| 1787650212 | 23.89° C | 56% | 1014.6 hPa | - | - | - | - |
| 1787649612 | 23.33° C | 64% | 1014.6 hPa | - | - | - | - |
| 1787649012 | 22.22° C | 69% | 1015 hPa | - | - | - | - |
| 1787648412 | 22.78° C | 65% | 1014.9 hPa | - | - | - | - |
| 1787647812 | 21.67° C | 68% | 1015.1 hPa | - | - | - | - |
| 1787647212 | 22.22° C | 71% | 1015 hPa | - | - | - | - |
| 1787646612 | 21.67° C | 69% | 1015.3 hPa | - | - | - | - |
| 1787646012 | 21.11° C | 76% | 1015.5 hPa | - | - | - | - |
| 1787645412 | 20.56° C | 79% | 1015.7 hPa | - | - | - | - |
| 1787644812 | 20.56° C | 79% | 1015.6 hPa | - | - | - | - |
| 1787644212 | 21.11° C | 77% | 1015.4 hPa | - | - | - | - |
| 1787643612 | 20.56° C | 79% | 1015.5 hPa | - | - | - | - |
| 1787643012 | 20° C | 82% | 1015.6 hPa | - | - | - | - |
| 1787642412 | 20° C | 80% | 1015.5 hPa | - | - | - | - |
| 1787641812 | 19.44° C | 84% | 1015.6 hPa | - | - | - | - |
| 1787641212 | 18.89° C | 89% | 1015.7 hPa | - | - | - | - |
| 1787640612 | 18.33° C | 84% | 1015.8 hPa | - | - | - | - |
| 1787640012 | 17.78° C | 88% | 1015.9 hPa | - | - | - | - |
| 1787639412 | 17.78° C | 82% | 1015.8 hPa | - | - | - | - |
* Rain since midnight (hover to see other rain measurements)
** Current wind speed in m/s (hover to see current wind gust speed)